Time;durP1;ratioP1;P1;durP2;ratioP2;P2;SDS_P1;SDS_P2;PMS_P1;PMS_P2;Temp;Humidity;BMP_temperature;BMP_pressure;BME280_temperature;BME280_humidity;BME280_pressure;Samples;Min_cycle;Max_cycle;Signal;HPM_P1;HPM_P2
2023/02/25 00:00:33;;;;;;;17.43;4.90;;;3.80;99.90;;;;;;5094916;28;20222;-61
2023/02/25 00:03:01;;;;;;;15.40;4.50;;;3.80;99.90;;;;;;5094740;28;20234;-62
2023/02/25 00:05:30;;;;;;;15.50;4.90;;;3.70;99.90;;;;;;5088816;27;20259;-60
2023/02/25 00:08:00;;;;;;;12.13;3.80;;;3.60;99.90;;;;;;5074748;28;20638;-61
2023/02/25 00:10:28;;;;;;;16.37;4.23;;;3.60;99.90;;;;;;5074829;28;20203;-61
2023/02/25 00:12:57;;;;;;;20.20;4.60;;;3.60;99.90;;;;;;5073905;28;20258;-61
2023/02/25 00:15:44;;;;;;;15.13;4.37;;;3.50;99.90;;;;;;5074369;28;20238;-61
2023/02/25 00:18:12;;;;;;;16.43;4.40;;;3.50;99.90;;;;;;5074161;28;20678;-60
2023/02/25 00:20:41;;;;;;;17.93;4.00;;;3.50;99.90;;;;;;5074019;28;20322;-61
2023/02/25 00:23:10;;;;;;;12.27;3.23;;;3.50;99.90;;;;;;5073882;28;20713;-60
2023/02/25 00:25:38;;;;;;;13.87;3.40;;;3.50;99.90;;;;;;5087861;28;20278;-60
2023/02/25 00:28:07;;;;;;;16.10;3.60;;;3.60;99.90;;;;;;5093890;28;20302;-60
2023/02/25 00:30:37;;;;;;;11.73;3.53;;;3.60;99.90;;;;;;5094026;28;20302;-60
2023/02/25 00:33:06;;;;;;;15.57;3.30;;;3.60;99.90;;;;;;5093963;28;20395;-61
2023/02/25 00:39:23;;;;;;;9.97;2.97;;;3.50;99.90;;;;;;5094113;28;20235;-61
2023/02/25 00:41:52;;;;;;;8.57;3.53;;;3.50;99.90;;;;;;5093509;28;20546;-61
2023/02/25 00:44:21;;;;;;;17.17;3.73;;;3.40;99.90;;;;;;5093923;28;20237;-61
2023/02/25 00:46:49;;;;;;;16.00;3.53;;;3.40;99.90;;;;;;5094025;28;20298;-60
2023/02/25 00:49:17;;;;;;;9.83;3.83;;;3.40;99.90;;;;;;5094334;28;20286;-60
2023/02/25 00:51:59;;;;;;;7.20;3.30;;;3.40;99.90;;;;;;5093871;28;20276;-61
2023/02/25 00:54:29;;;;;;;10.87;3.77;;;3.40;99.90;;;;;;5093480;27;20265;-60
2023/02/25 00:56:57;;;;;;;12.37;3.20;;;3.40;99.90;;;;;;5093591;28;20270;-60
2023/02/25 00:59:26;;;;;;;11.67;3.07;;;3.40;99.90;;;;;;5093523;28;20234;-61
2023/02/25 01:01:54;;;;;;;15.07;3.33;;;3.50;99.90;;;;;;5093612;28;20195;-61
2023/02/25 01:04:22;;;;;;;13.53;2.90;;;3.50;99.90;;;;;;5093743;28;20195;-61
2023/02/25 01:06:52;;;;;;;10.23;3.30;;;3.70;99.90;;;;;;5093317;28;20308;-61
2023/02/25 01:09:21;;;;;;;10.00;2.93;;;3.70;99.90;;;;;;5093341;28;20226;-61
2023/02/25 01:11:51;;;;;;;8.87;2.87;;;3.80;99.90;;;;;;5093407;28;20309;-61
2023/02/25 01:14:21;;;;;;;13.67;3.27;;;3.80;99.90;;;;;;5093382;28;20302;-61
2023/02/25 01:16:51;;;;;;;12.27;2.90;;;3.80;99.90;;;;;;5093827;28;20207;-61
2023/02/25 01:19:21;;;;;;;10.67;3.40;;;3.80;99.90;;;;;;5093593;28;20207;-61
2023/02/25 01:21:53;;;;;;;12.63;2.93;;;3.80;99.90;;;;;;5092909;28;20808;-61
2023/02/25 01:24:23;;;;;;;17.83;3.87;;;3.70;99.90;;;;;;5093485;28;20301;-60
2023/02/25 01:26:55;;;;;;;8.87;3.20;;;3.70;99.90;;;;;;5093516;28;20315;-61
2023/02/25 01:29:26;;;;;;;12.03;3.03;;;3.60;99.90;;;;;;5093527;28;20632;-61
2023/02/25 01:31:56;;;;;;;11.50;3.10;;;3.50;99.90;;;;;;5093726;28;20219;-61
2023/02/25 01:34:26;;;;;;;8.63;2.77;;;3.40;99.90;;;;;;5093583;28;20191;-61
2023/02/25 01:36:54;;;;;;;16.53;3.23;;;3.30;99.90;;;;;;5092854;28;20322;-60
2023/02/25 01:39:23;;;;;;;15.67;3.57;;;3.20;99.90;;;;;;5092810;28;20305;-61
2023/02/25 01:41:56;;;;;;;11.37;3.07;;;3.20;99.90;;;;;;5093245;28;20225;-60
2023/02/25 01:44:29;;;;;;;12.13;3.07;;;3.10;99.90;;;;;;5093138;28;20254;-60
2023/02/25 01:46:57;;;;;;;11.50;3.27;;;3.10;99.90;;;;;;5074188;28;20287;-60
2023/02/25 01:49:31;;;;;;;13.37;3.23;;;3.00;99.90;;;;;;5073128;28;20196;-60
2023/02/25 01:52:04;;;;;;;10.50;3.30;;;3.00;99.90;;;;;;5072510;28;20223;-60
2023/02/25 01:54:33;;;;;;;10.70;3.70;;;2.90;99.90;;;;;;5076894;28;20757;-61
2023/02/25 01:57:07;;;;;;;11.37;3.20;;;2.90;99.90;;;;;;5076544;28;20251;-61
2023/02/25 01:59:37;;;;;;;10.10;3.23;;;2.90;99.90;;;;;;5076699;28;20231;-60
2023/02/25 02:02:07;;;;;;;11.30;3.20;;;2.90;99.90;;;;;;5076925;28;20235;-60
2023/02/25 02:04:37;;;;;;;6.63;2.93;;;2.90;99.90;;;;;;5077679;28;20531;-60
2023/02/25 02:07:06;;;;;;;8.50;2.63;;;2.90;99.90;;;;;;5076357;28;20231;-61
2023/02/25 02:09:35;;;;;;;10.67;3.03;;;2.90;99.90;;;;;;5076461;28;20251;-61
2023/02/25 02:12:06;;;;;;;15.00;3.00;;;3.00;99.90;;;;;;5076785;28;20302;-60
2023/02/25 02:14:38;;;;;;;12.43;3.13;;;3.10;99.90;;;;;;5084268;28;20297;-60
2023/02/25 02:17:18;;;;;;;17.13;3.20;;;3.30;99.90;;;;;;5096711;28;20280;-60
2023/02/25 02:20:11;;;;;;;8.93;2.67;;;3.40;99.90;;;;;;5096698;28;20204;-61
2023/02/25 02:22:58;;;;;;;11.67;3.13;;;3.40;99.90;;;;;;5096922;28;20270;-60
2023/02/25 02:25:56;;;;;;;13.37;2.60;;;3.40;99.90;;;;;;5095178;28;20268;-60
2023/02/25 02:29:03;;;;;;;14.17;2.90;;;3.40;99.90;;;;;;5095395;28;20601;-60
2023/02/25 02:31:44;;;;;;;6.90;2.53;;;3.40;99.90;;;;;;5054099;28;20592;-60
2023/02/25 02:34:26;;;;;;;11.10;2.73;;;3.40;99.90;;;;;;5090315;28;20254;-61
2023/02/25 02:37:05;;;;;;;7.60;2.77;;;3.30;99.90;;;;;;5096254;27;20265;-61
2023/02/25 02:39:47;;;;;;;6.27;2.90;;;3.30;99.90;;;;;;5096535;28;20233;-60
2023/02/25 02:42:26;;;;;;;12.57;3.57;;;3.30;99.90;;;;;;5085714;28;20265;-61
2023/02/25 02:44:59;;;;;;;12.53;2.73;;;3.30;99.90;;;;;;5096304;28;20254;-60
2023/02/25 02:47:33;;;;;;;10.87;3.33;;;3.40;99.90;;;;;;5096287;28;20259;-60
2023/02/25 02:50:05;;;;;;;9.23;3.30;;;3.40;99.90;;;;;;5096726;28;20587;-61
2023/02/25 02:52:37;;;;;;;13.80;3.63;;;3.40;99.90;;;;;;5096693;28;20258;-61
2023/02/25 02:55:08;;;;;;;16.87;3.53;;;3.40;99.90;;;;;;5096431;28;20310;-61
2023/02/25 02:57:40;;;;;;;13.17;3.57;;;3.40;99.90;;;;;;5095769;28;20302;-61
2023/02/25 03:00:16;;;;;;;16.67;3.53;;;3.40;99.90;;;;;;5095863;28;20719;-60
2023/02/25 03:02:51;;;;;;;19.53;3.50;;;3.40;99.90;;;;;;5096192;28;20271;-60
2023/02/25 03:05:21;;;;;;;13.90;3.33;;;3.40;99.90;;;;;;5094782;28;20313;-61
2023/02/25 03:07:57;;;;;;;12.53;4.10;;;3.50;99.90;;;;;;5095739;28;20179;-61
2023/02/25 03:10:26;;;;;;;21.23;4.23;;;3.50;99.90;;;;;;5096034;28;20183;-60
2023/02/25 03:12:55;;;;;;;19.67;4.43;;;3.50;99.90;;;;;;5095591;28;20697;-61
2023/02/25 03:19:15;;;;;;;13.13;3.80;;;3.50;99.90;;;;;;5095168;28;20265;-61
2023/02/25 03:25:56;;;;;;;16.63;4.03;;;3.50;99.90;;;;;;5087913;28;20222;-60
2023/02/25 03:28:29;;;;;;;11.87;3.73;;;3.50;99.90;;;;;;5096049;28;20279;-61
2023/02/25 03:31:05;;;;;;;12.97;3.57;;;3.50;99.90;;;;;;5095178;27;20315;-61
2023/02/25 03:33:38;;;;;;;15.70;3.50;;;3.50;99.90;;;;;;5095110;28;20226;-60
2023/02/25 03:36:12;;;;;;;15.83;3.80;;;3.50;99.90;;;;;;5095313;28;20245;-60
2023/02/25 03:38:46;;;;;;;15.70;3.73;;;3.40;99.90;;;;;;5095011;28;20253;-60
2023/02/25 03:41:17;;;;;;;9.07;3.37;;;3.40;99.90;;;;;;5095682;28;20231;-61
2023/02/25 03:43:48;;;;;;;10.43;3.53;;;3.30;99.90;;;;;;5094937;28;20226;-60
2023/02/25 03:46:19;;;;;;;10.37;4.07;;;3.10;99.90;;;;;;5095401;28;20267;-60
2023/02/25 03:48:50;;;;;;;8.07;3.00;;;3.10;99.90;;;;;;5094899;28;20223;-60
2023/02/25 03:51:24;;;;;;;10.60;3.60;;;3.00;99.90;;;;;;5094927;28;20258;-60
2023/02/25 03:53:53;;;;;;;21.63;3.90;;;3.00;99.90;;;;;;5095284;28;20232;-61
2023/02/25 03:56:21;;;;;;;13.37;3.60;;;3.10;99.90;;;;;;5094694;28;20242;-61
2023/02/25 03:58:50;;;;;;;13.50;3.70;;;3.10;99.90;;;;;;5095076;27;20202;-61
2023/02/25 04:01:24;;;;;;;15.00;3.67;;;3.10;99.90;;;;;;5095248;28;20200;-60
2023/02/25 04:03:52;;;;;;;10.10;3.30;;;3.20;99.90;;;;;;5094508;28;20211;-61
2023/02/25 04:06:23;;;;;;;19.37;3.50;;;3.20;99.90;;;;;;5094611;28;20231;-60
2023/02/25 04:08:52;;;;;;;10.23;3.27;;;3.20;99.90;;;;;;5094989;28;20231;-60
2023/02/25 04:11:20;;;;;;;14.20;3.23;;;3.30;99.90;;;;;;5094304;28;20318;-61
2023/02/25 04:13:49;;;;;;;15.47;3.30;;;3.30;99.90;;;;;;5095140;28;20302;-61
2023/02/25 04:16:17;;;;;;;17.20;3.30;;;3.30;99.90;;;;;;5095183;28;20234;-61
2023/02/25 04:18:45;;;;;;;17.50;3.97;;;3.30;99.90;;;;;;5094239;28;20298;-61
2023/02/25 04:21:26;;;;;;;15.20;3.10;;;3.40;99.90;;;;;;5094389;28;20311;-60
2023/02/25 04:23:55;;;;;;;16.83;3.30;;;3.40;99.90;;;;;;5094308;28;20258;-60
2023/02/25 04:26:23;;;;;;;9.60;3.60;;;3.40;99.90;;;;;;5094211;28;20223;-61
2023/02/25 04:28:52;;;;;;;11.37;3.37;;;3.40;99.90;;;;;;5093970;28;20234;-61
2023/02/25 04:31:20;;;;;;;14.23;3.00;;;3.40;99.90;;;;;;5094332;28;20205;-61
2023/02/25 04:33:49;;;;;;;13.40;3.33;;;3.40;99.90;;;;;;5094102;28;20716;-61
2023/02/25 04:36:30;;;;;;;15.07;3.37;;;3.50;99.90;;;;;;5093875;28;20231;-61
2023/02/25 04:39:00;;;;;;;11.43;3.43;;;3.50;99.90;;;;;;5094094;28;20304;-60
2023/02/25 04:41:30;;;;;;;7.90;3.07;;;3.50;99.90;;;;;;5094052;28;20318;-61
2023/02/25 04:44:02;;;;;;;11.03;2.60;;;3.50;99.90;;;;;;5093810;28;20192;-61
2023/02/25 04:50:18;;;;;;;10.20;3.20;;;3.50;99.90;;;;;;5073584;28;20237;-61
2023/02/25 04:52:48;;;;;;;14.30;3.17;;;3.50;99.90;;;;;;5074604;28;20220;-60
2023/02/25 04:55:17;;;;;;;10.57;2.70;;;3.50;99.90;;;;;;5094251;28;20230;-60
2023/02/25 04:57:45;;;;;;;14.93;3.10;;;3.60;99.90;;;;;;5093556;28;20241;-60
2023/02/25 05:00:17;;;;;;;14.43;3.20;;;3.60;99.90;;;;;;5093519;28;20211;-60
2023/02/25 05:02:47;;;;;;;10.13;3.23;;;3.60;99.90;;;;;;5093793;28;20569;-61
2023/02/25 05:05:15;;;;;;;13.53;3.30;;;3.60;99.90;;;;;;5093715;28;20296;-61
2023/02/25 05:07:44;;;;;;;15.57;3.53;;;3.60;99.90;;;;;;5093878;28;20254;-61
2023/02/25 05:10:15;;;;;;;13.23;3.80;;;3.60;99.90;;;;;;5094100;28;20241;-61
2023/02/25 05:12:44;;;;;;;16.20;3.17;;;3.60;99.90;;;;;;5093551;28;20302;-60
2023/02/25 05:15:12;;;;;;;22.63;3.93;;;3.60;99.90;;;;;;5093442;28;20227;-60
2023/02/25 05:17:40;;;;;;;12.57;3.23;;;3.60;99.90;;;;;;5093494;28;20230;-60
2023/02/25 05:20:11;;;;;;;19.97;3.73;;;3.50;99.90;;;;;;5093087;28;20280;-60
2023/02/25 05:22:40;;;;;;;11.20;3.20;;;3.50;99.90;;;;;;5093533;28;20222;-60
2023/02/25 05:25:10;;;;;;;16.80;3.57;;;3.40;99.90;;;;;;5092991;28;20230;-61
2023/02/25 05:27:39;;;;;;;16.57;3.67;;;3.30;99.90;;;;;;5092803;28;20255;-61
2023/02/25 05:30:09;;;;;;;12.83;3.07;;;3.40;99.90;;;;;;5092983;28;20301;-61
2023/02/25 05:32:38;;;;;;;14.20;3.40;;;3.40;99.90;;;;;;5093137;28;20242;-60
2023/02/25 05:35:08;;;;;;;14.37;3.03;;;3.40;99.90;;;;;;5093660;28;20611;-61
2023/02/25 05:37:38;;;;;;;18.43;3.20;;;3.50;99.90;;;;;;5094174;28;20223;-60
2023/02/25 05:40:08;;;;;;;21.77;4.47;;;3.50;99.90;;;;;;5093173;28;20693;-61
2023/02/25 05:42:37;;;;;;;14.30;3.57;;;3.60;99.90;;;;;;5092865;28;20219;-60
2023/02/25 05:45:08;;;;;;;22.37;3.47;;;3.60;99.90;;;;;;5093145;28;20231;-61
2023/02/25 05:47:36;;;;;;;10.77;3.60;;;3.60;99.90;;;;;;5092961;28;20306;-60
2023/02/25 05:50:05;;;;;;;6.33;2.90;;;3.70;99.90;;;;;;5093361;28;21628;-60
2023/02/25 05:52:33;;;;;;;21.27;3.90;;;3.70;99.90;;;;;;5093741;28;20251;-60
2023/02/25 05:55:02;;;;;;;9.63;3.03;;;3.70;99.90;;;;;;5092837;28;20223;-61
2023/02/25 05:57:30;;;;;;;15.03;3.10;;;3.70;99.90;;;;;;5093052;28;20254;-60
2023/02/25 05:59:58;;;;;;;15.37;3.30;;;3.70;99.90;;;;;;5092740;28;20302;-60
2023/02/25 06:06:21;;;;;;;15.93;3.23;;;3.60;99.90;;;;;;5093017;28;20366;-60
2023/02/25 06:08:51;;;;;;;16.07;3.80;;;3.50;99.90;;;;;;5092747;28;20227;-60
2023/02/25 06:11:22;;;;;;;11.57;3.13;;;3.40;99.90;;;;;;5093273;28;20721;-61
2023/02/25 06:13:51;;;;;;;13.73;3.60;;;3.40;99.90;;;;;;5093126;28;20203;-61
2023/02/25 06:16:19;;;;;;;16.27;3.97;;;3.40;99.90;;;;;;5092877;28;20240;-60
2023/02/25 06:18:50;;;;;;;20.17;4.00;;;3.40;99.90;;;;;;5092776;28;20732;-60
2023/02/25 06:21:20;;;;;;;12.73;4.10;;;3.40;99.90;;;;;;5092752;28;20234;-60
2023/02/25 06:23:49;;;;;;;12.27;4.10;;;3.40;99.90;;;;;;5092330;28;20310;-60
2023/02/25 06:26:18;;;;;;;21.70;4.50;;;3.50;99.90;;;;;;5092996;28;20562;-60
2023/02/25 06:32:34;;;;;;;14.77;4.13;;;3.50;99.90;;;;;;5092712;28;20289;-61
2023/02/25 06:38:51;;;;;;;23.73;4.50;;;3.60;99.90;;;;;;5092637;28;20280;-60
2023/02/25 06:41:21;;;;;;;19.50;4.57;;;3.60;99.90;;;;;;5096278;28;20634;-60
2023/02/25 06:43:51;;;;;;;19.10;4.60;;;3.60;99.90;;;;;;5096083;28;20206;-60
2023/02/25 06:46:22;;;;;;;11.80;5.03;;;3.60;99.90;;;;;;5096518;28;20230;-61
2023/02/25 06:52:31;;;;;;;13.97;4.63;;;3.60;99.90;;;;;;5096469;28;20210;-60
2023/02/25 06:58:43;;;;;;;17.67;7.20;;;3.70;99.90;;;;;;5093480;28;20585;-60
2023/02/25 07:01:13;;;;;;;16.83;6.40;;;3.70;99.90;;;;;;5076487;28;20240;-61
2023/02/25 07:03:42;;;;;;;24.67;7.07;;;3.70;99.90;;;;;;5075833;28;20250;-61
2023/02/25 07:06:12;;;;;;;25.57;9.27;;;3.80;99.90;;;;;;5075571;28;20258;-61
2023/02/25 07:08:41;;;;;;;23.70;6.33;;;3.80;99.90;;;;;;5075240;28;20310;-61
2023/02/25 07:11:13;;;;;;;15.03;4.00;;;3.80;99.90;;;;;;5078809;28;20303;-61
2023/02/25 07:13:44;;;;;;;15.90;4.07;;;3.90;99.90;;;;;;5096577;28;20229;-60
2023/02/25 07:16:13;;;;;;;10.80;3.47;;;4.00;99.90;;;;;;5075280;28;20236;-61
2023/02/25 07:18:41;;;;;;;11.70;3.27;;;4.10;99.90;;;;;;5075329;28;20254;-60
2023/02/25 07:21:11;;;;;;;9.97;2.80;;;4.10;99.90;;;;;;5075083;28;20594;-61
2023/02/25 07:23:39;;;;;;;9.87;3.00;;;4.10;99.90;;;;;;5075216;28;20564;-60
2023/02/25 07:26:09;;;;;;;7.23;2.80;;;4.00;99.90;;;;;;5084644;28;20223;-61
2023/02/25 07:28:43;;;;;;;8.57;2.57;;;3.90;99.90;;;;;;5095731;28;20219;-61
2023/02/25 07:31:14;;;;;;;6.07;2.40;;;3.90;99.90;;;;;;5095556;28;20235;-60
2023/02/25 07:33:42;;;;;;;6.53;2.13;;;3.90;99.90;;;;;;5095545;27;20243;-60
2023/02/25 07:36:12;;;;;;;14.43;2.73;;;4.00;99.90;;;;;;5100889;28;20681;-61
2023/02/25 07:38:40;;;;;;;8.87;2.50;;;4.00;99.90;;;;;;5115449;27;20237;-61
2023/02/25 07:41:10;;;;;;;5.60;2.20;;;4.00;99.90;;;;;;5115335;27;20242;-61
2023/02/25 07:43:39;;;;;;;5.67;2.63;;;4.10;99.90;;;;;;5115997;28;20187;-61
2023/02/25 07:46:10;;;;;;;4.90;2.33;;;4.20;99.90;;;;;;5115513;27;20226;-61
2023/02/25 07:48:39;;;;;;;10.57;2.73;;;4.30;99.90;;;;;;5115538;27;20222;-61
2023/02/25 07:51:08;;;;;;;10.20;3.10;;;4.50;99.90;;;;;;5115162;27;20242;-60
2023/02/25 07:53:37;;;;;;;12.87;2.87;;;4.80;99.90;;;;;;5115106;27;20325;-61
2023/02/25 07:56:06;;;;;;;10.03;2.70;;;5.00;99.90;;;;;;5115549;27;20452;-61
2023/02/25 07:58:35;;;;;;;10.63;3.60;;;5.10;99.90;;;;;;5115490;28;20198;-61
2023/02/25 08:01:09;;;;;;;8.10;2.80;;;5.20;99.90;;;;;;5115220;27;20230;-60
2023/02/25 08:03:38;;;;;;;10.40;3.13;;;5.30;99.90;;;;;;5115033;27;20230;-61
2023/02/25 08:06:07;;;;;;;11.00;2.47;;;5.60;99.90;;;;;;5114996;27;20302;-61
2023/02/25 08:08:36;;;;;;;10.07;2.67;;;6.00;99.90;;;;;;5114994;27;20692;-62
2023/02/25 08:11:06;;;;;;;10.13;2.77;;;6.50;99.90;;;;;;5114707;27;20250;-61
2023/02/25 08:13:34;;;;;;;9.83;3.20;;;7.10;99.90;;;;;;5115380;28;20282;-61
2023/02/25 08:16:04;;;;;;;9.50;3.17;;;7.70;99.90;;;;;;5114386;27;20309;-61
2023/02/25 08:18:34;;;;;;;8.37;2.50;;;7.90;99.90;;;;;;5114807;27;20586;-61
2023/02/25 08:21:03;;;;;;;10.60;2.80;;;7.80;99.90;;;;;;5073991;28;20223;-61
2023/02/25 08:23:31;;;;;;;8.53;2.40;;;7.50;99.90;;;;;;5073920;28;20739;-61
2023/02/25 08:26:01;;;;;;;10.60;2.57;;;7.20;99.90;;;;;;5073568;28;20255;-61
2023/02/25 08:28:30;;;;;;;10.77;2.40;;;7.00;99.90;;;;;;5074458;28;20619;-61
2023/02/25 08:31:02;;;;;;;11.93;2.80;;;6.70;99.90;;;;;;5074099;28;20583;-61
2023/02/25 08:33:32;;;;;;;9.10;2.67;;;6.70;99.90;;;;;;5073844;28;20250;-61
2023/02/25 08:36:08;;;;;;;8.50;2.57;;;7.10;99.90;;;;;;5076530;28;20254;-61
2023/02/25 08:38:37;;;;;;;8.80;2.50;;;7.50;99.90;;;;;;5094400;28;20295;-62
2023/02/25 08:41:06;;;;;;;9.03;2.67;;;7.80;99.90;;;;;;5093942;28;20269;-62
2023/02/25 08:43:36;;;;;;;10.47;2.57;;;8.20;99.90;;;;;;5094791;28;20558;-62
2023/02/25 08:46:05;;;;;;;7.27;2.47;;;8.40;99.90;;;;;;5094342;28;20258;-62
2023/02/25 08:48:35;;;;;;;7.53;2.63;;;8.70;99.90;;;;;;5094107;28;20261;-62
2023/02/25 08:51:07;;;;;;;13.87;2.43;;;9.00;99.90;;;;;;5094014;28;20238;-62
2023/02/25 08:53:37;;;;;;;13.47;2.20;;;9.00;99.90;;;;;;5093468;28;20231;-62
2023/02/25 08:56:06;;;;;;;11.07;2.77;;;9.20;99.90;;;;;;5094273;28;20677;-62
2023/02/25 08:58:34;;;;;;;9.43;2.60;;;9.40;99.90;;;;;;5094131;28;20199;-62
2023/02/25 09:01:07;;;;;;;13.87;2.70;;;9.30;99.90;;;;;;5093349;28;20223;-61
2023/02/25 09:03:51;;;;;;;10.13;3.10;;;9.40;99.90;;;;;;5093121;28;20285;-61
2023/02/25 09:06:22;;;;;;;12.00;2.80;;;9.60;99.90;;;;;;5093530;28;20261;-61
2023/02/25 09:08:50;;;;;;;15.20;3.00;;;9.60;99.90;;;;;;5093515;28;20250;-61
2023/02/25 09:11:19;;;;;;;15.40;3.33;;;9.20;99.90;;;;;;5093701;28;20662;-61
2023/02/25 09:13:48;;;;;;;17.33;2.93;;;8.90;99.90;;;;;;5093745;28;20199;-61
2023/02/25 09:16:16;;;;;;;14.73;3.17;;;8.90;99.90;;;;;;5094034;28;20196;-62
2023/02/25 09:18:47;;;;;;;10.63;3.13;;;9.00;99.90;;;;;;5093794;28;20246;-61
2023/02/25 09:21:15;;;;;;;7.00;2.90;;;8.90;99.90;;;;;;5093605;28;20632;-61
2023/02/25 09:23:45;;;;;;;11.13;2.70;;;8.70;99.90;;;;;;5093301;27;20701;-62
2023/02/25 09:26:14;;;;;;;8.53;2.80;;;8.60;99.90;;;;;;5093059;28;20219;-61
2023/02/25 09:28:43;;;;;;;7.80;2.53;;;8.90;99.90;;;;;;5093280;28;20202;-61
2023/02/25 09:31:11;;;;;;;9.80;2.97;;;8.90;99.90;;;;;;5093344;28;20258;-61
2023/02/25 09:33:41;;;;;;;11.73;3.50;;;8.60;99.90;;;;;;5092982;27;20701;-61
2023/02/25 09:36:13;;;;;;;15.37;2.70;;;8.40;99.90;;;;;;5093118;28;20310;-61
2023/02/25 09:38:43;;;;;;;17.03;3.13;;;8.10;99.90;;;;;;5092818;28;20306;-61
2023/02/25 09:41:22;;;;;;;12.03;3.00;;;7.90;99.90;;;;;;5093377;28;20321;-61
2023/02/25 09:44:07;;;;;;;15.30;3.10;;;7.70;99.90;;;;;;5093704;28;20204;-61
2023/02/25 09:46:45;;;;;;;8.13;2.60;;;7.60;99.90;;;;;;5094265;28;20233;-61
2023/02/25 09:49:20;;;;;;;14.27;2.73;;;7.40;99.90;;;;;;5093531;28;20203;-60
2023/02/25 09:51:57;;;;;;;11.07;2.33;;;7.90;99.90;;;;;;5092996;27;20231;-62
2023/02/25 09:58:19;;;;;;;8.30;2.40;;;9.50;99.90;;;;;;5093062;28;20242;-61
2023/02/25 10:04:39;;;;;;;10.13;2.23;;;9.90;99.90;;;;;;5093176;28;20687;-62
2023/02/25 10:11:03;;;;;;;8.00;2.60;;;9.30;99.90;;;;;;5093387;28;20214;-61
2023/02/25 10:13:41;;;;;;;5.37;2.37;;;8.40;99.90;;;;;;5094131;28;20229;-62
2023/02/25 10:16:31;;;;;;;9.73;2.63;;;7.90;99.90;;;;;;5096910;28;20313;-61
2023/02/25 10:19:09;;;;;;;10.67;2.27;;;7.70;99.90;;;;;;5097001;28;20234;-61
2023/02/25 10:21:50;;;;;;;7.73;2.33;;;7.70;99.90;;;;;;5097103;27;20310;-62
2023/02/25 10:24:28;;;;;;;5.87;2.50;;;8.00;99.90;;;;;;5095455;28;20321;-62
2023/02/25 10:27:06;;;;;;;6.53;2.00;;;8.80;99.90;;;;;;5102356;27;20246;-62
2023/02/25 10:29:40;;;;;;;7.47;2.20;;;9.70;99.90;;;;;;5096754;28;20226;-63
2023/02/25 10:32:19;;;;;;;7.13;2.50;;;10.40;99.90;;;;;;5097086;28;20680;-62
2023/02/25 10:38:48;;;;;;;6.47;2.30;;;11.80;99.90;;;;;;5096424;28;20265;-62
2023/02/25 10:45:11;;;;;;;9.97;2.50;;;12.50;99.90;;;;;;5096138;28;20224;-62
2023/02/25 10:47:44;;;;;;;11.20;2.70;;;11.70;99.90;;;;;;5096203;28;20255;-62
2023/02/25 10:50:17;;;;;;;9.70;2.87;;;10.80;99.90;;;;;;5095925;28;20196;-61
2023/02/25 10:52:54;;;;;;;10.43;2.87;;;10.50;99.90;;;;;;5096406;28;20537;-62
2023/02/25 10:55:29;;;;;;;14.13;2.93;;;11.00;99.90;;;;;;5096239;28;20258;-61
2023/02/25 11:01:46;;;;;;;6.43;2.77;;;12.30;99.90;;;;;;5096303;28;20272;-62
2023/02/25 11:04:20;;;;;;;7.90;2.33;;;11.70;99.90;;;;;;5095831;28;20233;-62
2023/02/25 11:06:48;;;;;;;14.73;2.90;;;12.00;99.90;;;;;;5095945;28;20230;-62
2023/02/25 11:09:34;;;;;;;9.13;2.50;;;12.40;99.90;;;;;;5096046;28;20306;-63
2023/02/25 11:12:11;;;;;;;10.93;2.63;;;12.00;99.90;;;;;;5096389;28;20589;-63
2023/02/25 11:14:40;;;;;;;7.97;2.50;;;11.90;99.90;;;;;;5095925;28;20230;-62
2023/02/25 11:17:15;;;;;;;10.30;2.47;;;11.80;99.90;;;;;;5096355;28;20222;-62
2023/02/25 11:19:46;;;;;;;10.13;2.40;;;11.30;99.90;;;;;;5096165;28;20242;-62
2023/02/25 11:22:19;;;;;;;14.97;3.03;;;10.50;99.90;;;;;;5095886;28;20231;-62
2023/02/25 11:28:54;;;;;;;5.53;2.50;;;9.10;99.90;;;;;;5091885;28;20257;-61
2023/02/25 11:35:20;;;;;;;4.87;2.53;;;8.10;99.90;;;;;;5075059;28;20633;-61
2023/02/25 11:37:48;;;;;;;7.57;2.23;;;8.60;99.90;;;;;;5075550;28;20301;-62
2023/02/25 11:40:23;;;;;;;10.30;3.13;;;9.70;99.90;;;;;;5074801;28;20258;-62
2023/02/25 11:43:02;;;;;;;10.40;2.40;;;10.50;99.90;;;;;;5075066;28;20251;-62
2023/02/25 11:45:34;;;;;;;13.33;2.43;;;10.70;99.90;;;;;;5075066;28;20278;-62
2023/02/25 11:48:03;;;;;;;8.63;2.87;;;10.90;99.90;;;;;;5074629;28;20226;-62
2023/02/25 11:50:44;;;;;;;9.47;3.10;;;11.00;99.90;;;;;;5075294;28;20224;-62
2023/02/25 11:53:30;;;;;;;13.00;2.80;;;11.00;99.90;;;;;;5075213;28;20610;-62
2023/02/25 11:56:07;;;;;;;11.23;2.97;;;11.00;99.90;;;;;;5075057;28;20188;-62
2023/02/25 11:58:50;;;;;;;15.40;3.20;;;10.90;99.90;;;;;;5074935;28;20239;-61
2023/02/25 12:01:28;;;;;;;9.33;2.50;;;11.50;99.90;;;;;;5074713;28;20233;-62
2023/02/25 12:04:41;;;;;;;13.33;2.43;;;12.20;99.90;;;;;;5074504;28;20229;-63
2023/02/25 12:07:46;;;;;;;10.47;2.67;;;12.80;99.90;;;;;;5074454;28;20716;-62
2023/02/25 12:11:04;;;;;;;9.60;2.60;;;12.60;99.90;;;;;;5055608;28;20313;-61
2023/02/25 12:14:06;;;;;;;5.80;2.50;;;11.90;99.90;;;;;;5074298;28;20638;-62
2023/02/25 12:17:12;;;;;;;8.67;2.33;;;11.00;99.90;;;;;;5074494;28;20239;-61
2023/02/25 12:20:18;;;;;;;10.67;2.80;;;10.50;99.90;;;;;;5074691;28;20219;-61
2023/02/25 12:23:30;;;;;;;8.67;2.90;;;10.10;99.90;;;;;;5074932;28;20243;-62
2023/02/25 12:26:07;;;;;;;7.77;2.30;;;9.70;99.90;;;;;;5074549;28;20603;-61
2023/02/25 12:29:06;;;;;;;13.90;2.67;;;9.30;99.90;;;;;;5073759;28;20630;-61
2023/02/25 12:32:08;;;;;;;13.40;3.13;;;8.60;99.90;;;;;;5074260;28;20314;-61
2023/02/25 12:35:12;;;;;;;13.20;2.80;;;8.20;99.90;;;;;;5074522;28;20222;-61
2023/02/25 12:37:59;;;;;;;9.63;2.63;;;7.70;99.90;;;;;;5072921;28;20216;-61
2023/02/25 12:40:50;;;;;;;16.87;3.33;;;7.50;99.90;;;;;;5074125;28;20733;-61
2023/02/25 12:43:29;;;;;;;14.97;4.50;;;7.60;99.90;;;;;;5073644;28;20661;-61
2023/02/25 12:46:10;;;;;;;8.57;3.83;;;7.70;99.90;;;;;;5073986;28;20262;-61
2023/02/25 12:49:04;;;;;;;13.53;3.37;;;7.70;99.90;;;;;;5073807;28;20231;-61
2023/02/25 12:51:47;;;;;;;20.33;3.00;;;7.90;99.90;;;;;;5072205;28;20302;-61
2023/02/25 12:54:33;;;;;;;17.87;3.83;;;8.30;99.90;;;;;;5074758;28;20310;-62
2023/02/25 12:57:37;;;;;;;21.27;3.87;;;9.10;99.90;;;;;;5093607;28;20223;-61
2023/02/25 13:00:24;;;;;;;16.30;3.20;;;10.00;99.90;;;;;;5093643;28;20738;-62
2023/02/25 13:03:04;;;;;;;13.33;3.53;;;10.20;99.90;;;;;;5093980;28;20241;-61
2023/02/25 13:05:55;;;;;;;12.63;3.10;;;10.00;99.90;;;;;;5094255;28;20598;-62
2023/02/25 13:08:44;;;;;;;16.47;3.03;;;9.80;99.90;;;;;;5093756;28;20294;-61
2023/02/25 13:11:25;;;;;;;10.67;2.80;;;9.60;99.90;;;;;;5062798;28;20200;-61
2023/02/25 13:14:16;;;;;;;14.80;2.97;;;9.60;99.90;;;;;;5093849;28;20180;-61
2023/02/25 13:17:09;;;;;;;11.00;2.47;;;9.30;99.90;;;;;;5094215;28;20656;-62
2023/02/25 13:20:26;;;;;;;13.73;3.13;;;9.10;99.90;;;;;;5093810;28;20238;-61
2023/02/25 13:26:59;;;;;;;15.97;2.77;;;9.00;99.90;;;;;;5031360;28;20236;-60
2023/02/25 13:29:39;;;;;;;9.53;3.03;;;9.30;99.90;;;;;;5031181;28;20629;-61
2023/02/25 13:32:22;;;;;;;14.80;3.10;;;9.70;99.90;;;;;;5087099;28;20245;-62
2023/02/25 13:35:15;;;;;;;7.10;2.57;;;10.00;99.90;;;;;;5093795;28;20242;-61
2023/02/25 13:37:56;;;;;;;12.07;3.03;;;10.50;99.90;;;;;;5091398;28;20290;-61
2023/02/25 13:40:52;;;;;;;12.50;2.93;;;10.60;99.90;;;;;;5093296;28;20266;-62
2023/02/25 13:43:56;;;;;;;8.70;2.70;;;10.30;99.90;;;;;;5093345;28;20311;-61
2023/02/25 13:46:54;;;;;;;12.70;2.80;;;9.80;99.90;;;;;;5041975;28;20262;-61
2023/02/25 13:50:06;;;;;;;9.10;2.73;;;9.40;99.90;;;;;;5069945;28;20223;-61
2023/02/25 13:52:47;;;;;;;7.57;2.30;;;8.70;99.90;;;;;;5097571;28;20293;-60
2023/02/25 13:55:37;;;;;;;6.70;2.40;;;7.80;99.90;;;;;;5051556;27;64688;-61
2023/02/25 13:58:32;;;;;;;6.30;2.33;;;7.70;99.90;;;;;;5052750;28;20244;-61
2023/02/25 14:01:31;;;;;;;3.80;2.30;;;7.50;99.90;;;;;;5056915;28;20230;-61
2023/02/25 14:04:33;;;;;;;5.33;2.40;;;7.40;99.90;;;;;;5056556;28;20598;-61
2023/02/25 14:07:46;;;;;;;4.20;1.77;;;7.70;99.90;;;;;;5052350;28;20232;-61
2023/02/25 14:10:28;;;;;;;4.37;2.73;;;7.80;99.90;;;;;;5041098;28;20256;-61
2023/02/25 14:13:24;;;;;;;3.43;2.20;;;7.80;99.90;;;;;;5056917;28;20303;-61
2023/02/25 14:16:01;;;;;;;1.97;1.87;;;8.00;99.90;;;;;;5046447;28;20256;-61
2023/02/25 14:22:31;;;;;;;1.97;1.70;;;8.30;99.90;;;;;;5056717;28;20160;-61
2023/02/25 14:25:23;;;;;;;4.57;1.90;;;8.30;99.90;;;;;;5056419;28;20228;-61
2023/02/25 14:28:02;;;;;;;2.47;2.10;;;7.90;99.90;;;;;;5054363;28;20714;-61
2023/02/25 14:30:38;;;;;;;3.73;1.70;;;7.80;99.90;;;;;;5056465;28;20224;-61
2023/02/25 14:33:42;;;;;;;3.10;1.90;;;7.80;99.90;;;;;;5056600;28;20625;-61
2023/02/25 14:36:25;;;;;;;6.83;2.40;;;7.90;99.90;;;;;;5056192;28;20702;-61
2023/02/25 14:39:12;;;;;;;4.87;2.00;;;8.00;99.90;;;;;;5055957;28;20252;-61
2023/02/25 14:41:52;;;;;;;5.80;2.50;;;8.70;99.90;;;;;;5055994;28;20228;-61